Star Helena — V7KJ9 — position and weather

sailwx.info

Track history (hours):
 
Tides and Currents Weather Stations Pressure Air Temp Water Temp Dewpoint Dewpoint Depression Visibility Wind Speed Wind Dir Waves Ship Positions

Star Helena

Last reported at 2017-Dec-10 15:05 UTC. Time now 2017-Dec-14 04:34 UTC.
Position S 00°14' W 051°19'.

Length 229 m; draft 7 m.

Type: Cargo ship. MMSI: 538002630.

Date/timePositionNaut miles runAvg speedWind from/ knotsBaromVisibWave heightAir tempDewpointWater temp
2017-Dec-10 15:05S 00°14' W 051°19'111.9
2017-Dec-10 15:00S 00°14' W 051°18'510.8
2017-Dec-10 14:31S 00°10' W 051°15'4 8.6
2017-Dec-10 14:00S 00°07' W 051°11'510.8
2017-Dec-10 13:30S 00°05' W 051°07'0 0.9
2017-Dec-10 12:58S 00°04' W 051°06'0 0.1
2017-Dec-10 12:28S 00°04' W 051°07'0 0.0
2017-Dec-10 11:58S 00°04' W 051°06'0 0.0
2017-Dec-10 11:28S 00°04' W 051°07'0 0.0
2017-Dec-10 10:55S 00°04' W 051°06'0 0.4
2017-Dec-10 10:22S 00°04' W 051°06'1 3.9
2017-Dec-10 10:00S 00°03' W 051°05'5 9.1
2017-Dec-10 09:30N 00°00' W 051°02'510.6
2017-Dec-10 09:00N 00°04' W 050°58'1 1.0
2017-Dec-10 08:26N 00°04' W 050°58'0 0.2
2017-Dec-10 07:56N 00°04' W 050°58'0 0.1
2017-Dec-10 07:26N 00°04' W 050°58'0 0.0
2017-Dec-10 06:56N 00°04' W 050°58'0 0.0
2017-Dec-10 06:26N 00°04' W 050°58'0 0.0
2017-Dec-10 05:50N 00°04' W 050°58'0 0.0
2017-Dec-10 05:20N 00°04' W 050°58'0 0.0
2017-Dec-10 04:56N 00°04' W 050°58'0 0.0
2017-Dec-10 04:26N 00°04' W 050°58'0 0.0
2017-Dec-10 03:56N 00°04' W 050°58'0 0.0
2017-Dec-10 03:26N 00°04' W 050°58'0 0.0
2017-Dec-10 02:56N 00°04' W 050°58'0 0.1
2017-Dec-10 02:26N 00°04' W 050°58'0 0.2
2017-Dec-10 01:56N 00°04' W 050°58'0 0.4
2017-Dec-10 01:26N 00°04' W 050°58'0 0.4
2017-Dec-10 00:58N 00°04' W 050°58'1 2.4
2017-Dec-10 00:30N 00°05' W 050°59'2 4.8
2017-Dec-10 00:00N 00°07' W 050°58'510.0
2017-Dec-09 23:29N 00°09' W 050°53'3 7.1
2017-Dec-09 23:00N 00°10' W 050°50'  
Track history (hours):
 
Tides and Currents Weather Stations Pressure Air Temp Water Temp Dewpoint Dewpoint Depression Visibility Wind Speed Wind Dir Waves Ship Positions

Star Helena

Last reported at 2017-Dec-10 15:05 UTC. Time now 2017-Dec-14 04:34 UTC.
Position S 00°14' W 051°19'.

Length 229 m; draft 7 m.

Type: Cargo ship. MMSI: 538002630.

Date/timePositionNaut miles runAvg speedWind from/ knotsBaromVisibWave heightAir tempDewpointWater temp
2017-Dec-10 15:05S 00°14' W 051°19'111.9
2017-Dec-10 15:00S 00°14' W 051°18'510.8
2017-Dec-10 14:31S 00°10' W 051°15'4 8.6
2017-Dec-10 14:00S 00°07' W 051°11'510.8
2017-Dec-10 13:30S 00°05' W 051°07'0 0.9
2017-Dec-10 12:58S 00°04' W 051°06'0 0.1
2017-Dec-10 12:28S 00°04' W 051°07'0 0.0
2017-Dec-10 11:58S 00°04' W 051°06'0 0.0
2017-Dec-10 11:28S 00°04' W 051°07'0 0.0
2017-Dec-10 10:55S 00°04' W 051°06'0 0.4
2017-Dec-10 10:22S 00°04' W 051°06'1 3.9
2017-Dec-10 10:00S 00°03' W 051°05'5 9.1
2017-Dec-10 09:30N 00°00' W 051°02'510.6
2017-Dec-10 09:00N 00°04' W 050°58'1 1.0
2017-Dec-10 08:26N 00°04' W 050°58'0 0.2
2017-Dec-10 07:56N 00°04' W 050°58'0 0.1
2017-Dec-10 07:26N 00°04' W 050°58'0 0.0
2017-Dec-10 06:56N 00°04' W 050°58'0 0.0
2017-Dec-10 06:26N 00°04' W 050°58'0 0.0
2017-Dec-10 05:50N 00°04' W 050°58'0 0.0
2017-Dec-10 05:20N 00°04' W 050°58'0 0.0
2017-Dec-10 04:56N 00°04' W 050°58'0 0.0
2017-Dec-10 04:26N 00°04' W 050°58'0 0.0
2017-Dec-10 03:56N 00°04' W 050°58'0 0.0
2017-Dec-10 03:26N 00°04' W 050°58'0 0.0
2017-Dec-10 02:56N 00°04' W 050°58'0 0.1
2017-Dec-10 02:26N 00°04' W 050°58'0 0.2
2017-Dec-10 01:56N 00°04' W 050°58'0 0.4
2017-Dec-10 01:26N 00°04' W 050°58'0 0.4
2017-Dec-10 00:58N 00°04' W 050°58'1 2.4
2017-Dec-10 00:30N 00°05' W 050°59'2 4.8
2017-Dec-10 00:00N 00°07' W 050°58'510.0
2017-Dec-09 23:29N 00°09' W 050°53'3 7.1
2017-Dec-09 23:00N 00°10' W 050°50'  

Dump ship's entire track history